createdAt,value
2017-03-19T00:00:01.124Z,10.57
2017-03-19T00:01:01.102Z,10.56
2017-03-19T00:02:01.080Z,10.56
2017-03-19T00:03:01.072Z,10.55
2017-03-19T00:04:01.056Z,10.67
2017-03-19T00:05:00.707Z,10.71
2017-03-19T00:06:01.019Z,10.69
2017-03-19T00:07:00.987Z,10.72
2017-03-19T00:08:00.967Z,10.74
2017-03-19T00:09:00.947Z,10.84
2017-03-19T00:10:00.923Z,10.85
2017-03-19T00:11:00.596Z,10.89
2017-03-19T00:12:00.875Z,10.92
2017-03-19T00:13:00.550Z,10.77
2017-03-19T00:14:00.845Z,10.6
2017-03-19T00:15:00.825Z,10.56
2017-03-19T00:16:00.513Z,10.41
2017-03-19T00:17:00.793Z,10.36
2017-03-19T00:18:00.765Z,10.41
2017-03-19T00:19:00.770Z,10.41
2017-03-19T00:20:00.718Z,10.46
2017-03-19T00:21:00.707Z,10.57
2017-03-19T00:22:00.683Z,10.55
2017-03-19T00:23:00.679Z,10.55
2017-03-19T00:24:00.370Z,10.53
2017-03-19T00:25:00.353Z,10.48
2017-03-19T00:26:00.606Z,10.6
2017-03-19T00:27:00.620Z,10.64
2017-03-19T00:28:00.577Z,10.66
2017-03-19T00:29:00.244Z,10.69
2017-03-19T00:30:00.527Z,10.66
2017-03-19T00:31:00.515Z,10.77
2017-03-19T00:32:00.485Z,10.57
2017-03-19T00:33:00.461Z,10.56
2017-03-19T00:34:00.457Z,10.57
2017-03-19T00:35:00.427Z,10.69
2017-03-19T00:36:00.406Z,10.81
2017-03-19T00:37:00.387Z,10.82
2017-03-19T00:38:00.368Z,10.8
2017-03-19T00:39:00.356Z,10.63
2017-03-19T00:40:00.348Z,10.59
2017-03-19T00:41:00.320Z,10.69
2017-03-19T00:41:59.971Z,10.52
2017-03-19T00:43:00.272Z,10.55
2017-03-19T00:44:00.232Z,10.63
2017-03-19T00:45:00.220Z,10.63
2017-03-19T00:46:00.198Z,10.66
2017-03-19T00:47:00.215Z,10.57
2017-03-19T00:48:00.158Z,10.55
2017-03-19T00:48:59.825Z,10.55
2017-03-19T00:50:00.121Z,10.6
2017-03-19T00:51:00.112Z,10.72
2017-03-19T00:52:00.083Z,10.53
2017-03-19T00:53:00.085Z,10.56
2017-03-19T00:54:00.035Z,10.53
2017-03-19T00:55:00.057Z,10.67
2017-03-19T00:55:59.690Z,10.53
2017-03-19T00:56:59.673Z,10.53
2017-03-19T00:57:59.642Z,10.38
2017-03-19T00:58:59.933Z,10.36
2017-03-19T00:59:59.305Z,10.36
2017-03-19T01:00:59.886Z,10.33
2017-03-19T01:01:59.899Z,10.38
2017-03-19T01:02:59.239Z,10.44
2017-03-19T01:03:59.849Z,10.57
2017-03-19T01:04:59.821Z,10.69
2017-03-19T01:05:59.818Z,10.52
2017-03-19T01:06:59.469Z,10.57
2017-03-19T01:07:59.786Z,10.55
2017-03-19T01:08:59.726Z,10.55
2017-03-19T01:09:59.407Z,10.48
2017-03-19T01:10:59.686Z,10.57
2017-03-19T01:11:59.685Z,10.67
2017-03-19T01:12:59.643Z,10.63
2017-03-19T01:13:59.652Z,10.67
2017-03-19T01:14:59.622Z,10.52
2017-03-19T01:15:58.991Z,10.57
2017-03-19T01:16:59.580Z,10.55
2017-03-19T01:17:59.611Z,10.56
2017-03-19T01:18:59.530Z,10.53
2017-03-19T01:19:59.520Z,10.43
2017-03-19T01:20:59.490Z,10.3
2017-03-19T01:21:59.479Z,10.33
2017-03-19T01:22:59.458Z,10.19
2017-03-19T01:23:59.137Z,10.25
2017-03-19T01:24:59.135Z,10.28
2017-03-19T01:25:59.387Z,10.34
2017-03-19T01:26:59.384Z,10.43
2017-03-19T01:27:59.366Z,10.47
2017-03-19T01:28:59.029Z,10.53
2017-03-19T01:29:59.311Z,10.48
2017-03-19T01:30:59.305Z,10.56
2017-03-19T01:31:58.963Z,10.41
2017-03-19T01:32:59.252Z,10.52
2017-03-19T01:33:59.220Z,10.53
2017-03-19T01:34:58.913Z,10.57
2017-03-19T01:35:59.181Z,10.55
2017-03-19T01:36:59.168Z,10.56
2017-03-19T01:37:59.181Z,10.53
2017-03-19T01:38:59.119Z,10.6
2017-03-19T01:39:58.851Z,10.48
2017-03-19T01:40:59.080Z,10.59
2017-03-19T01:41:59.059Z,10.56
2017-03-19T01:42:59.053Z,10.25
2017-03-19T01:43:59.025Z,10.28
2017-03-19T01:44:58.708Z,10.25
2017-03-19T01:45:58.984Z,10.33
2017-03-19T01:46:58.665Z,10.21
2017-03-19T01:47:58.989Z,10.19
2017-03-19T01:48:58.925Z,10.13
2017-03-19T01:49:58.954Z,10.15
2017-03-19T01:50:58.882Z,10.03
2017-03-19T01:51:58.550Z,10.16
2017-03-19T01:52:58.863Z,10.1
2017-03-19T01:53:58.823Z,10.16
2017-03-19T01:54:58.843Z,10.22
2017-03-19T01:55:58.780Z,10.29
2017-03-19T01:56:58.861Z,10.26
2017-03-19T01:57:58.750Z,10.29
2017-03-19T01:58:58.422Z,10.29
2017-03-19T01:59:58.393Z,10.25
2017-03-19T02:00:58.669Z,10.25
2017-03-19T02:01:58.660Z,10.29
2017-03-19T02:02:58.626Z,10.4
2017-03-19T02:03:58.647Z,10.37
2017-03-19T02:04:58.386Z,10.28
2017-03-19T02:05:58.585Z,10.19
2017-03-19T02:06:58.558Z,10.23
2017-03-19T02:07:58.534Z,10.16
2017-03-19T02:08:58.219Z,10.26
2017-03-19T02:09:58.492Z,10.3
2017-03-19T02:10:58.202Z,10.46
2017-03-19T02:11:58.463Z,10.38
2017-03-19T02:12:58.448Z,10.43
2017-03-19T02:13:58.413Z,10.56
2017-03-19T02:14:58.411Z,10.55
2017-03-19T02:15:58.070Z,10.46
2017-03-19T02:16:58.061Z,10.53
2017-03-19T02:17:58.422Z,10.41
2017-03-19T02:18:58.319Z,10.37
2017-03-19T02:19:57.979Z,10.34
2017-03-19T02:20:57.979Z,10.37
2017-03-19T02:21:57.951Z,10.16
2017-03-19T02:22:57.922Z,10.11
2017-03-19T02:23:58.238Z,10.15
2017-03-19T02:24:58.292Z,10.16
2017-03-19T02:25:57.864Z,10.33
2017-03-19T02:26:58.165Z,10.36
2017-03-19T02:27:57.822Z,10.41
2017-03-19T02:28:57.810Z,10.38
2017-03-19T02:29:58.103Z,10.28
2017-03-19T02:30:57.795Z,10.33
2017-03-19T02:31:57.741Z,10.33
2017-03-19T02:32:57.711Z,10.26
2017-03-19T02:33:57.992Z,10.21
2017-03-19T02:34:58.030Z,10.33
2017-03-19T02:35:57.347Z,10.43
2017-03-19T02:36:57.635Z,10.41
2017-03-19T02:37:57.920Z,10.44
2017-03-19T02:38:57.619Z,10.47
2017-03-19T02:39:57.868Z,10.4
2017-03-19T02:40:57.858Z,10.55
2017-03-19T02:41:57.837Z,10.55
2017-03-19T02:42:57.806Z,10.6
2017-03-19T02:43:57.847Z,10.52
2017-03-19T02:44:57.793Z,10.38
2017-03-19T02:45:57.786Z,10.46
2017-03-19T02:46:57.743Z,10.43
2017-03-19T02:47:57.705Z,10.41
2017-03-19T02:48:57.402Z,10.3
2017-03-19T02:49:57.735Z,10.47
2017-03-19T02:50:57.661Z,10.56
2017-03-19T02:51:57.341Z,10.53
2017-03-19T02:52:57.621Z,10.4
2017-03-19T02:53:57.282Z,10.55
2017-03-19T02:54:57.583Z,10.57
2017-03-19T02:55:57.240Z,10.56
2017-03-19T02:56:57.529Z,10.63
2017-03-19T02:57:57.206Z,10.64
2017-03-19T02:58:57.501Z,10.53
2017-03-19T02:59:57.484Z,10.56
2017-03-19T03:00:57.458Z,10.43
2017-03-19T03:01:57.414Z,10.47
2017-03-19T03:02:57.406Z,10.41
2017-03-19T03:03:57.081Z,10.43
2017-03-19T03:04:57.066Z,10.55
2017-03-19T03:05:57.354Z,10.48
2017-03-19T03:06:57.324Z,10.44
2017-03-19T03:07:57.303Z,10.46
2017-03-19T03:08:57.294Z,10.41
2017-03-19T03:09:56.962Z,10.47
2017-03-19T03:10:56.942Z,10.34
2017-03-19T03:11:57.271Z,10.34
2017-03-19T03:12:57.206Z,10.52
2017-03-19T03:13:57.203Z,10.56
2017-03-19T03:14:57.179Z,10.59
2017-03-19T03:15:56.937Z,10.53
2017-03-19T03:16:57.116Z,10.4
2017-03-19T03:17:56.879Z,10.23
2017-03-19T03:18:57.089Z,10.22
2017-03-19T03:19:57.167Z,10.38
2017-03-19T03:20:57.047Z,10.41
2017-03-19T03:21:57.042Z,10.46
2017-03-19T03:22:57.005Z,10.47
2017-03-19T03:23:57.083Z,10.46
2017-03-19T03:24:56.653Z,10.52
2017-03-19T03:25:56.653Z,10.52
2017-03-19T03:26:56.914Z,10.63
2017-03-19T03:27:56.628Z,10.52
2017-03-19T03:28:56.273Z,10.52
2017-03-19T03:29:56.564Z,10.52
2017-03-19T03:30:56.535Z,10.55
2017-03-19T03:31:56.533Z,10.57
2017-03-19T03:32:56.811Z,10.67
2017-03-19T03:33:56.845Z,10.57
2017-03-19T03:34:56.768Z,10.67
2017-03-19T03:35:56.197Z,10.62
2017-03-19T03:36:56.758Z,10.59
2017-03-19T03:37:56.747Z,10.55
2017-03-19T03:38:56.687Z,10.66
2017-03-19T03:39:56.714Z,10.69
2017-03-19T03:40:56.325Z,10.66
2017-03-19T03:41:56.625Z,10.63
2017-03-19T03:42:56.663Z,10.57
2017-03-19T03:43:56.389Z,10.59
2017-03-19T03:44:56.632Z,10.6
2017-03-19T03:45:56.535Z,10.56
2017-03-19T03:46:56.591Z,10.67
2017-03-19T03:47:56.491Z,10.57
2017-03-19T03:48:56.541Z,10.55
2017-03-19T03:49:56.458Z,10.48
2017-03-19T03:50:56.479Z,10.53
2017-03-19T03:51:56.511Z,10.43
2017-03-19T03:52:56.153Z,10.53
2017-03-19T03:53:56.387Z,10.52
2017-03-19T03:54:56.438Z,10.56
2017-03-19T03:55:56.404Z,10.48
2017-03-19T03:56:56.314Z,10.43
2017-03-19T03:57:56.308Z,10.4
2017-03-19T03:58:55.966Z,10.4
2017-03-19T03:59:55.948Z,10.46
2017-03-19T04:00:56.342Z,10.43
2017-03-19T04:01:56.195Z,10.52
2017-03-19T04:02:55.893Z,10.52
2017-03-19T04:03:55.558Z,10.56
2017-03-19T04:04:56.233Z,10.52
2017-03-19T04:05:56.124Z,10.53
2017-03-19T04:06:55.823Z,10.56
2017-03-19T04:07:56.101Z,10.74
2017-03-19T04:08:56.088Z,10.77
2017-03-19T04:09:56.045Z,10.81
2017-03-19T04:10:55.721Z,10.78
2017-03-19T04:11:55.709Z,10.81
2017-03-19T04:12:55.751Z,10.87
2017-03-19T04:13:55.965Z,10.85
2017-03-19T04:14:55.948Z,10.72
2017-03-19T04:15:56.041Z,10.62
2017-03-19T04:16:55.970Z,10.64
2017-03-19T04:17:55.904Z,10.62
2017-03-19T04:18:55.966Z,10.64
2017-03-19T04:19:55.565Z,10.69
2017-03-19T04:20:55.856Z,10.71
2017-03-19T04:21:55.496Z,10.67
2017-03-19T04:22:55.786Z,10.69
2017-03-19T04:23:55.449Z,10.78
2017-03-19T04:24:55.746Z,10.81
2017-03-19T04:25:55.705Z,10.89
2017-03-19T04:26:55.379Z,10.99
2017-03-19T04:27:55.676Z,10.87
2017-03-19T04:28:55.351Z,10.85
2017-03-19T04:29:55.331Z,10.99
2017-03-19T04:30:55.614Z,10.82
2017-03-19T04:31:55.283Z,10.75
2017-03-19T04:32:55.580Z,10.75
2017-03-19T04:33:55.567Z,10.77
2017-03-19T04:34:55.228Z,10.6
2017-03-19T04:35:55.539Z,10.67
2017-03-19T04:36:55.186Z,10.59
2017-03-19T04:37:55.464Z,10.64
2017-03-19T04:38:55.148Z,10.77
2017-03-19T04:39:55.127Z,10.82
2017-03-19T04:40:55.094Z,10.9
2017-03-19T04:41:55.074Z,10.87
2017-03-19T04:42:55.377Z,10.72
2017-03-19T04:43:55.353Z,10.72
2017-03-19T04:44:55.043Z,10.67
2017-03-19T04:45:55.302Z,10.77
2017-03-19T04:46:55.292Z,10.75
2017-03-19T04:47:54.972Z,10.71
2017-03-19T04:48:54.640Z,10.66
2017-03-19T04:49:55.259Z,10.69
2017-03-19T04:50:55.202Z,10.71
2017-03-19T04:51:55.193Z,10.8
2017-03-19T04:52:54.858Z,10.8
2017-03-19T04:53:54.919Z,10.8
2017-03-19T04:54:55.130Z,10.8
2017-03-19T04:55:54.807Z,10.78
2017-03-19T04:56:55.099Z,10.85
2017-03-19T04:57:55.076Z,10.85
2017-03-19T04:58:54.756Z,10.89
2017-03-19T04:59:55.127Z,10.96
2017-03-19T05:00:54.395Z,10.98
2017-03-19T05:01:55.104Z,11.05
2017-03-19T05:02:54.660Z,11.06
2017-03-19T05:03:54.654Z,11.02
2017-03-19T05:04:54.623Z,11.05
2017-03-19T05:05:54.912Z,11.1
2017-03-19T05:06:54.580Z,11.03
2017-03-19T05:07:54.559Z,11.06
2017-03-19T05:08:54.841Z,11.06
2017-03-19T05:09:54.302Z,11
2017-03-19T05:10:54.806Z,11.02
2017-03-19T05:11:54.777Z,11.13
2017-03-19T05:12:54.759Z,11.13
2017-03-19T05:13:54.737Z,11.26
2017-03-19T05:14:54.422Z,11.21
2017-03-19T05:15:54.398Z,11.18
2017-03-19T05:16:54.687Z,11.18
2017-03-19T05:17:54.677Z,11.13
2017-03-19T05:18:54.338Z,11.15
2017-03-19T05:19:54.643Z,11.18
2017-03-19T05:20:54.604Z,11.21
2017-03-19T05:21:54.574Z,11.2
2017-03-19T05:22:54.551Z,11.29
2017-03-19T05:23:54.263Z,11.21
2017-03-19T05:24:54.519Z,11.2
2017-03-19T05:25:54.501Z,11.24
2017-03-19T05:26:54.490Z,11.18
2017-03-19T05:27:54.451Z,11.24
2017-03-19T05:28:54.439Z,11.28
2017-03-19T05:29:53.868Z,11.29
2017-03-19T05:30:54.393Z,11.36
2017-03-19T05:31:54.382Z,11.43
2017-03-19T05:32:54.357Z,11.43
2017-03-19T05:33:54.349Z,11.42
2017-03-19T05:34:54.318Z,11.48
2017-03-19T05:35:53.987Z,11.46
2017-03-19T05:36:53.974Z,11.4
2017-03-19T05:37:53.957Z,11.48
2017-03-19T05:38:54.243Z,11.43
2017-03-19T05:39:53.933Z,11.53
2017-03-19T05:40:54.214Z,11.53
2017-03-19T05:41:54.170Z,11.5
2017-03-19T05:42:53.863Z,11.43
2017-03-19T05:43:54.142Z,11.53
2017-03-19T05:44:54.123Z,11.51
2017-03-19T05:45:54.097Z,11.43
2017-03-19T05:46:54.105Z,11.46
2017-03-19T05:47:53.759Z,11.56
2017-03-19T05:48:54.034Z,11.58
2017-03-19T05:49:54.014Z,11.58
2017-03-19T05:50:53.987Z,11.5
2017-03-19T05:51:53.349Z,11.42
2017-03-19T05:52:53.668Z,11.43
2017-03-19T05:53:53.940Z,11.51
2017-03-19T05:54:53.923Z,11.57
2017-03-19T05:55:53.899Z,11.6
2017-03-19T05:56:53.875Z,11.58
2017-03-19T05:57:53.278Z,11.69
2017-03-19T05:58:53.851Z,11.66
2017-03-19T05:59:53.834Z,11.71
2017-03-19T06:00:53.791Z,11.81
2017-03-19T06:01:53.462Z,11.75
2017-03-19T06:02:53.762Z,11.78
2017-03-19T06:03:53.432Z,11.71
2017-03-19T06:04:53.701Z,11.66
2017-03-19T06:05:53.397Z,11.69
2017-03-19T06:06:53.373Z,11.72
2017-03-19T06:07:53.344Z,11.71
2017-03-19T06:08:53.640Z,11.78
2017-03-19T06:09:53.317Z,11.75
2017-03-19T06:10:53.297Z,11.72
2017-03-19T06:11:53.566Z,11.73
2017-03-19T06:12:53.569Z,11.86
2017-03-19T06:13:53.556Z,11.86
2017-03-19T06:14:53.515Z,11.86
2017-03-19T06:15:53.505Z,11.73
2017-03-19T06:16:53.177Z,11.81
2017-03-19T06:17:53.452Z,11.78
2017-03-19T06:18:53.454Z,11.72
2017-03-19T06:19:53.426Z,11.71
2017-03-19T06:20:53.392Z,11.69
2017-03-19T06:21:53.059Z,11.83
2017-03-19T06:22:53.051Z,11.75
2017-03-19T06:23:53.350Z,11.72
2017-03-19T06:24:53.311Z,11.73
2017-03-19T06:25:53.306Z,11.75
2017-03-19T06:26:52.980Z,11.86
2017-03-19T06:27:53.248Z,11.84
2017-03-19T06:28:52.939Z,11.86
2017-03-19T06:29:52.903Z,11.83
2017-03-19T06:30:53.193Z,11.81
2017-03-19T06:31:53.211Z,11.83
2017-03-19T06:32:53.156Z,11.81
2017-03-19T06:33:52.525Z,11.95
2017-03-19T06:34:52.819Z,11.9
2017-03-19T06:35:53.124Z,11.83
2017-03-19T06:36:53.083Z,11.81
2017-03-19T06:37:53.070Z,11.84
2017-03-19T06:38:53.044Z,11.86
2017-03-19T06:39:53.031Z,11.86
2017-03-19T06:40:52.702Z,11.83
2017-03-19T06:41:52.668Z,11.86
2017-03-19T06:42:52.650Z,11.89
2017-03-19T06:43:52.663Z,11.84
2017-03-19T06:44:52.920Z,11.86
2017-03-19T06:45:52.589Z,11.87
2017-03-19T06:46:52.577Z,11.89
2017-03-19T06:47:52.564Z,11.99
2017-03-19T06:48:52.847Z,11.89
2017-03-19T06:49:52.890Z,11.81
2017-03-19T06:50:52.834Z,11.89
2017-03-19T06:51:52.476Z,11.89
2017-03-19T06:52:52.757Z,11.87
2017-03-19T06:53:52.131Z,11.89
2017-03-19T06:54:52.727Z,11.98
2017-03-19T06:55:52.715Z,11.91
2017-03-19T06:56:52.392Z,11.9
2017-03-19T06:57:52.674Z,12.02
2017-03-19T06:58:52.425Z,12.03
2017-03-19T06:59:52.639Z,11.97
2017-03-19T07:00:52.603Z,11.9
2017-03-19T07:01:52.580Z,11.95
2017-03-19T07:02:52.261Z,11.89
2017-03-19T07:03:52.239Z,11.91
2017-03-19T07:04:52.530Z,11.95
2017-03-19T07:05:52.190Z,11.97
2017-03-19T07:06:52.318Z,11.9
2017-03-19T07:07:52.466Z,11.97
2017-03-19T07:08:52.466Z,11.89
2017-03-19T07:09:52.166Z,11.91
2017-03-19T07:10:52.409Z,11.97
2017-03-19T07:11:52.096Z,12.02
2017-03-19T07:12:52.106Z,11.94
2017-03-19T07:13:52.355Z,11.97
2017-03-19T07:14:52.035Z,11.98
2017-03-19T07:15:52.306Z,11.99
2017-03-19T07:16:52.292Z,12.03
2017-03-19T07:17:52.274Z,12.06
2017-03-19T07:18:52.254Z,12.06
2017-03-19T07:19:52.243Z,11.98
2017-03-19T07:20:51.596Z,12.1
2017-03-19T07:21:51.902Z,12.05
2017-03-19T07:22:51.875Z,12.02
2017-03-19T07:23:52.151Z,12.06
2017-03-19T07:24:52.154Z,12.1
2017-03-19T07:25:52.119Z,12.07
2017-03-19T07:26:52.099Z,12.06
2017-03-19T07:27:52.075Z,12.09
2017-03-19T07:28:52.079Z,12.06
2017-03-19T07:29:52.059Z,12.06
2017-03-19T07:30:52.029Z,12.06
2017-03-19T07:31:51.692Z,12.02
2017-03-19T07:32:51.984Z,12.02
2017-03-19T07:33:51.971Z,12.02
2017-03-19T07:34:51.942Z,12.2
2017-03-19T07:35:51.624Z,12.16
2017-03-19T07:36:51.901Z,12.1
2017-03-19T07:37:51.888Z,12.15
2017-03-19T07:38:51.868Z,12.09
2017-03-19T07:39:51.844Z,12.13
2017-03-19T07:40:51.817Z,12.09
2017-03-19T07:41:51.182Z,12.07
2017-03-19T07:42:51.823Z,12.07
2017-03-19T07:43:51.472Z,12.09
2017-03-19T07:44:51.118Z,12.05
2017-03-19T07:45:51.739Z,12.05
2017-03-19T07:46:51.707Z,12.07
2017-03-19T07:47:51.688Z,12.21
2017-03-19T07:48:51.658Z,12.17
2017-03-19T07:49:51.042Z,12.17
2017-03-19T07:50:51.307Z,12.13
2017-03-19T07:51:51.604Z,12.13
2017-03-19T07:52:51.285Z,12.16
2017-03-19T07:53:51.284Z,12.17
2017-03-19T07:54:51.556Z,12.24
2017-03-19T07:55:51.524Z,12.24
2017-03-19T07:56:51.502Z,12.2
2017-03-19T07:57:51.493Z,12.17
2017-03-19T07:58:51.464Z,12.35
2017-03-19T07:59:51.448Z,12.31
2017-03-19T08:00:51.130Z,12.3
2017-03-19T08:01:51.092Z,12.34
2017-03-19T08:02:51.383Z,12.35
2017-03-19T08:03:51.068Z,12.37
2017-03-19T08:04:51.351Z,12.39
2017-03-19T08:05:51.338Z,12.35
2017-03-19T08:06:50.997Z,12.42
2017-03-19T08:07:50.987Z,12.35
2017-03-19T08:08:50.960Z,12.37
2017-03-19T08:09:51.249Z,12.35
2017-03-19T08:10:51.267Z,12.28
2017-03-19T08:11:51.214Z,12.31
2017-03-19T08:12:51.195Z,12.35
2017-03-19T08:13:50.862Z,12.35
2017-03-19T08:14:51.182Z,12.31
2017-03-19T08:15:51.143Z,12.32
2017-03-19T08:16:50.802Z,12.37
2017-03-19T08:17:51.092Z,12.45
2017-03-19T08:18:51.070Z,12.39
2017-03-19T08:19:51.097Z,12.31
2017-03-19T08:20:51.043Z,12.39
2017-03-19T08:21:51.032Z,12.35
2017-03-19T08:22:51.014Z,12.34
2017-03-19T08:23:50.690Z,12.32
2017-03-19T08:24:51.009Z,12.42
2017-03-19T08:25:50.938Z,12.43
2017-03-19T08:26:50.618Z,12.32
2017-03-19T08:27:50.917Z,12.24
2017-03-19T08:28:50.896Z,12.3
2017-03-19T08:29:50.869Z,12.28
2017-03-19T08:30:50.848Z,12.35
2017-03-19T08:31:50.827Z,12.34
2017-03-19T08:32:50.804Z,12.35
2017-03-19T08:33:50.803Z,12.28
2017-03-19T08:34:50.462Z,12.39
2017-03-19T08:35:50.449Z,12.4
2017-03-19T08:36:50.719Z,12.37
2017-03-19T08:37:50.704Z,12.37
2017-03-19T08:38:50.390Z,12.48
2017-03-19T08:39:50.661Z,12.34
2017-03-19T08:40:50.661Z,12.32
2017-03-19T08:41:50.375Z,12.39
2017-03-19T08:42:50.307Z,12.32
2017-03-19T08:43:50.337Z,12.42
2017-03-19T08:44:50.283Z,12.42
2017-03-19T08:45:50.377Z,12.35
2017-03-19T08:46:50.233Z,12.48
2017-03-19T08:47:50.521Z,12.4
2017-03-19T08:48:50.509Z,12.4
2017-03-19T08:49:50.468Z,12.31
2017-03-19T08:50:50.444Z,12.42
2017-03-19T08:51:50.432Z,12.43
2017-03-19T08:52:50.418Z,12.46
2017-03-19T08:53:50.413Z,12.48
2017-03-19T08:54:50.389Z,12.42
2017-03-19T08:55:50.349Z,12.45
2017-03-19T08:56:50.333Z,12.52
2017-03-19T08:57:50.022Z,12.48
2017-03-19T08:58:50.029Z,12.39
2017-03-19T08:59:50.405Z,12.39
2017-03-19T09:00:50.256Z,12.4
2017-03-19T09:01:49.950Z,12.35
2017-03-19T09:02:49.919Z,12.35
2017-03-19T09:03:50.210Z,12.39
2017-03-19T09:04:49.887Z,12.42
2017-03-19T09:05:50.167Z,12.35
2017-03-19T09:06:50.158Z,12.45
2017-03-19T09:07:49.835Z,12.42
2017-03-19T09:08:50.102Z,12.45
2017-03-19T09:09:49.803Z,12.46
2017-03-19T09:10:49.769Z,12.37
2017-03-19T09:11:50.043Z,12.53
2017-03-19T09:12:50.040Z,12.45
2017-03-19T09:13:50.004Z,12.37
2017-03-19T09:14:49.999Z,12.45
2017-03-19T09:15:49.979Z,12.48
2017-03-19T09:16:49.633Z,12.53
2017-03-19T09:17:49.953Z,12.48
2017-03-19T09:18:49.910Z,12.45
2017-03-19T09:19:49.600Z,12.46
2017-03-19T09:20:49.596Z,12.48
2017-03-19T09:21:49.560Z,12.45
2017-03-19T09:22:49.535Z,12.46
2017-03-19T09:23:49.529Z,12.39
2017-03-19T09:24:49.790Z,12.49
2017-03-19T09:25:49.468Z,12.53
2017-03-19T09:26:49.776Z,12.49
2017-03-19T09:27:49.758Z,12.37
2017-03-19T09:28:49.739Z,12.49
2017-03-19T09:29:49.714Z,12.48
2017-03-19T09:30:49.391Z,12.5
2017-03-19T09:31:49.668Z,12.48
2017-03-19T09:32:49.070Z,12.53
2017-03-19T09:33:49.739Z,12.49
2017-03-19T09:34:49.614Z,12.61
2017-03-19T09:35:49.300Z,12.55
2017-03-19T09:36:49.571Z,12.5
2017-03-19T09:37:49.558Z,12.57
2017-03-19T09:38:49.526Z,12.61
2017-03-19T09:39:49.237Z,12.6
2017-03-19T09:40:49.194Z,12.64
2017-03-19T09:41:49.478Z,12.61
2017-03-19T09:42:49.472Z,12.63
2017-03-19T09:43:49.129Z,12.61
2017-03-19T09:44:49.417Z,12.63
2017-03-19T09:45:49.084Z,12.68
2017-03-19T09:46:48.756Z,12.7
2017-03-19T09:47:49.060Z,12.74
2017-03-19T09:48:49.344Z,12.68
2017-03-19T09:49:49.014Z,12.61
2017-03-19T09:50:49.304Z,12.68
2017-03-19T09:54:19.212Z,12.71
2017-03-19T09:54:48.916Z,12.79
2017-03-19T09:55:49.219Z,12.83
2017-03-19T09:56:49.175Z,12.82
2017-03-19T09:57:49.213Z,12.83
2017-03-19T09:58:48.871Z,12.81
2017-03-19T09:59:49.225Z,12.73
2017-03-19T10:00:49.111Z,12.78
2017-03-19T10:01:49.095Z,12.73
2017-03-19T10:02:48.762Z,12.79
2017-03-19T10:03:49.053Z,12.81
2017-03-19T10:04:48.720Z,12.81
2017-03-19T10:05:49.030Z,12.88
2017-03-19T10:06:48.998Z,12.73
2017-03-19T10:07:48.661Z,12.74
2017-03-19T10:08:48.660Z,12.9
2017-03-19T10:09:49.050Z,12.83
2017-03-19T10:10:48.967Z,12.81
2017-03-19T10:11:48.896Z,12.81
2017-03-19T10:12:48.886Z,12.83
2017-03-19T10:13:48.854Z,12.82
2017-03-19T10:14:48.540Z,12.82
2017-03-19T10:15:48.970Z,12.88
2017-03-19T10:16:48.806Z,12.96
2017-03-19T10:17:48.776Z,12.98
2017-03-19T10:18:48.758Z,12.96
2017-03-19T10:19:48.759Z,12.96
2017-03-19T10:20:48.743Z,12.97
2017-03-19T10:21:48.704Z,13.01
2017-03-19T10:22:48.697Z,12.96
2017-03-19T10:23:48.377Z,13.15
2017-03-19T10:24:48.738Z,13.07
2017-03-19T10:25:48.653Z,13.07
2017-03-19T10:26:48.327Z,13.08
2017-03-19T10:27:48.599Z,13.14
2017-03-19T10:28:48.283Z,13.01
2017-03-19T10:29:48.274Z,13.01
2017-03-19T10:30:48.229Z,12.88
2017-03-19T10:31:48.526Z,12.96
2017-03-19T10:32:48.512Z,12.98
2017-03-19T10:33:48.494Z,12.96
2017-03-19T10:34:48.468Z,13
2017-03-19T10:35:48.546Z,12.98
2017-03-19T10:36:48.107Z,13.07
2017-03-19T10:37:48.400Z,12.98
2017-03-19T10:38:48.390Z,12.96
2017-03-19T10:39:48.082Z,12.92
2017-03-19T10:40:48.354Z,12.88
2017-03-19T10:41:48.327Z,12.97
2017-03-19T10:42:48.318Z,12.96
2017-03-19T10:43:48.286Z,13.03
2017-03-19T10:44:48.292Z,13.04
2017-03-19T10:45:48.252Z,13.03
2017-03-19T10:46:48.237Z,12.98
2017-03-19T10:47:47.960Z,12.96
2017-03-19T10:48:47.916Z,12.92
2017-03-19T10:49:48.196Z,13.03
2017-03-19T10:50:47.859Z,13.01
2017-03-19T10:51:48.139Z,12.98
2017-03-19T10:52:48.155Z,13.11
2017-03-19T10:53:48.117Z,13.1
2017-03-19T10:54:48.119Z,13.11
2017-03-19T10:55:48.068Z,13.03
2017-03-19T10:56:48.054Z,13.16
2017-03-19T10:57:48.028Z,13.04
2017-03-19T10:58:48.089Z,13.14
2017-03-19T10:59:48.008Z,13.14
2017-03-19T11:00:47.978Z,13.07
2017-03-19T11:01:47.952Z,13.15
2017-03-19T11:02:47.637Z,13.03
2017-03-19T11:03:47.913Z,13.16
2017-03-19T11:04:47.946Z,13.25
2017-03-19T11:05:47.878Z,13.22
2017-03-19T11:06:47.868Z,13.19
2017-03-19T11:07:47.853Z,13.21
2017-03-19T11:08:47.831Z,13.14
2017-03-19T11:09:47.796Z,13.11
2017-03-19T11:10:47.783Z,13.19
2017-03-19T11:11:47.778Z,13.21
2017-03-19T11:12:47.458Z,13.19
2017-03-19T11:13:47.732Z,13.31
2017-03-19T11:14:47.408Z,13.18
2017-03-19T11:15:47.717Z,13.33
2017-03-19T11:16:47.377Z,13.29
2017-03-19T11:17:47.677Z,13.23
2017-03-19T11:18:47.340Z,13.22
2017-03-19T11:19:47.316Z,13.22
2017-03-19T11:20:47.308Z,13.25
2017-03-19T11:21:47.607Z,13.41
2017-03-19T11:22:47.589Z,13.29
2017-03-19T11:23:47.538Z,13.38
2017-03-19T11:24:47.229Z,13.35
2017-03-19T11:25:47.508Z,13.47
2017-03-19T11:26:47.497Z,13.52
2017-03-19T11:27:47.467Z,13.66
2017-03-19T11:28:47.459Z,13.82
2017-03-19T11:29:47.434Z,13.88
2017-03-19T11:30:46.857Z,14
2017-03-19T11:31:47.405Z,14.02
2017-03-19T11:32:47.096Z,14.08
2017-03-19T11:33:47.077Z,14.13
2017-03-19T11:34:47.343Z,14.02
2017-03-19T11:35:47.324Z,14.15
2017-03-19T11:36:47.312Z,13.95
2017-03-19T11:37:47.317Z,14.1
2017-03-19T11:38:47.270Z,14.07
2017-03-19T11:39:47.261Z,14.1
2017-03-19T11:40:47.241Z,14.13
2017-03-19T11:41:47.218Z,14.2
2017-03-19T11:42:47.199Z,14.21
2017-03-19T11:43:47.206Z,14.28
2017-03-19T11:44:47.159Z,14.29
2017-03-19T11:45:47.166Z,14.1
2017-03-19T11:46:47.135Z,14
2017-03-19T11:47:47.125Z,14.14
2017-03-19T11:48:47.113Z,14.08
2017-03-19T11:49:47.107Z,14.11
2017-03-19T11:50:47.076Z,14.14
2017-03-19T11:51:47.055Z,14.21
2017-03-19T11:52:47.048Z,14.17
2017-03-19T11:53:47.016Z,14.08
2017-03-19T11:54:47.005Z,14.07
2017-03-19T11:55:46.686Z,13.97
2017-03-19T11:56:46.972Z,14.05
2017-03-19T11:57:46.934Z,13.92
2017-03-19T11:58:46.929Z,13.97
2017-03-19T11:59:46.905Z,13.92
2017-03-19T12:00:46.887Z,13.85
2017-03-19T12:01:46.861Z,13.84
2017-03-19T12:02:46.840Z,13.82
2017-03-19T12:03:46.857Z,13.84
2017-03-19T12:04:46.793Z,13.82
2017-03-19T12:05:46.821Z,13.82
2017-03-19T12:06:46.769Z,13.82
2017-03-19T12:07:46.782Z,13.84
2017-03-19T12:08:46.733Z,13.84
2017-03-19T12:09:46.707Z,13.81
2017-03-19T12:10:46.716Z,13.84
2017-03-19T12:11:46.686Z,13.82
2017-03-19T12:12:46.692Z,13.85
2017-03-19T12:13:46.667Z,13.84
2017-03-19T12:14:46.328Z,13.84
2017-03-19T12:15:46.615Z,13.81
2017-03-19T12:16:46.575Z,13.8
2017-03-19T12:17:46.581Z,13.65
2017-03-19T12:18:46.569Z,13.7
2017-03-19T12:19:46.547Z,13.62
2017-03-19T12:20:46.518Z,13.7
2017-03-19T12:21:46.489Z,13.77
2017-03-19T12:22:46.485Z,13.7
2017-03-19T12:23:46.489Z,13.72
2017-03-19T12:24:46.449Z,13.81
2017-03-19T12:25:46.436Z,13.74
2017-03-19T12:26:46.263Z,13.77
2017-03-19T12:27:46.405Z,13.75
2017-03-19T12:28:46.367Z,13.65
2017-03-19T12:29:46.364Z,13.52
2017-03-19T12:30:46.336Z,13.57
2017-03-19T12:31:46.320Z,13.57
2017-03-19T12:32:46.307Z,13.53
2017-03-19T12:33:46.281Z,13.57
2017-03-19T12:34:46.256Z,13.52
2017-03-19T12:35:46.234Z,13.37
2017-03-19T12:36:46.250Z,13.47
2017-03-19T12:37:46.207Z,13.47
2017-03-19T12:38:46.196Z,13.42
2017-03-19T12:39:46.166Z,13.26
2017-03-19T12:40:46.150Z,13.28
2017-03-19T12:41:46.131Z,13.35
2017-03-19T12:42:46.126Z,13.31
2017-03-19T12:43:46.081Z,13.42
2017-03-19T12:44:46.076Z,13.38
2017-03-19T12:45:45.447Z,13.29
2017-03-19T12:46:45.747Z,13.33
2017-03-19T12:47:46.022Z,13.41
2017-03-19T12:48:45.742Z,13.31
2017-03-19T12:49:45.987Z,13.37
2017-03-19T12:50:45.969Z,13.28
2017-03-19T12:51:45.945Z,13.28
2017-03-19T12:52:45.919Z,13.21
2017-03-19T12:53:45.920Z,13.38
2017-03-19T12:54:45.897Z,13.26
2017-03-19T12:55:45.877Z,13.28